Time;durP1;ratioP1;P1;durP2;ratioP2;P2;SDS_P1;SDS_P2;PMS_P1;PMS_P2;Temp;Humidity;BMP_temperature;BMP_pressure;BME280_temperature;BME280_humidity;BME280_pressure;Samples;Min_cycle;Max_cycle;Signal;HPM_P1;HPM_P2
2022/03/22 00:02:01;;;;;;;51.35;32.65;;;5.40;99.90;;;;;;5052366;28;20044;-66
2022/03/22 00:04:27;;;;;;;53.85;31.70;;;5.40;99.90;;;;;;5051161;28;20049;-66
2022/03/22 00:06:52;;;;;;;48.92;30.20;;;5.40;99.90;;;;;;5047805;28;20045;-66
2022/03/22 00:09:18;;;;;;;46.53;28.98;;;5.40;99.90;;;;;;5032374;28;20075;-66
2022/03/22 00:11:44;;;;;;;45.00;27.67;;;5.40;99.90;;;;;;5033367;28;20045;-66
2022/03/22 00:14:10;;;;;;;43.17;25.65;;;5.40;99.90;;;;;;5032751;28;20044;-66
2022/03/22 00:16:37;;;;;;;48.00;27.58;;;5.30;99.90;;;;;;5065410;28;20432;-66
2022/03/22 00:19:03;;;;;;;41.90;26.85;;;5.30;99.90;;;;;;5033544;28;20049;-66
2022/03/22 00:21:29;;;;;;;46.08;28.33;;;5.30;99.90;;;;;;5033371;28;20429;-66
2022/03/22 00:23:54;;;;;;;46.78;30.25;;;5.30;99.90;;;;;;5033149;28;20058;-66
2022/03/22 00:26:20;;;;;;;49.55;29.80;;;5.30;99.90;;;;;;5031557;28;20577;-66
2022/03/22 00:28:47;;;;;;;50.70;30.73;;;5.20;99.90;;;;;;5032241;28;20462;-66
2022/03/22 00:31:13;;;;;;;50.42;31.30;;;5.20;99.90;;;;;;5033412;28;20045;-66
2022/03/22 00:33:39;;;;;;;40.97;26.08;;;5.20;99.90;;;;;;5032132;28;20116;-66
2022/03/22 00:36:05;;;;;;;47.28;27.55;;;5.20;99.90;;;;;;5030560;28;20037;-66
2022/03/22 00:38:31;;;;;;;51.25;26.02;;;5.20;99.90;;;;;;5032062;28;20045;-66
2022/03/22 00:40:58;;;;;;;42.53;27.77;;;5.20;99.90;;;;;;5033328;28;20099;-66
2022/03/22 00:43:24;;;;;;;55.40;30.00;;;5.20;99.90;;;;;;5032214;28;20111;-66
2022/03/22 00:45:50;;;;;;;46.67;29.05;;;5.20;99.90;;;;;;5033231;28;20041;-66
2022/03/22 00:48:16;;;;;;;54.75;32.42;;;5.20;99.90;;;;;;5032835;28;20071;-66
2022/03/22 00:50:44;;;;;;;59.08;30.88;;;5.20;99.90;;;;;;5032883;28;20045;-66
2022/03/22 00:53:12;;;;;;;47.70;28.25;;;5.20;99.90;;;;;;5032694;28;20061;-66
2022/03/22 00:55:40;;;;;;;47.67;29.42;;;5.20;99.90;;;;;;5031733;28;20378;-66
2022/03/22 00:58:07;;;;;;;45.08;27.95;;;5.10;99.90;;;;;;5032818;28;20175;-65
2022/03/22 01:00:33;;;;;;;50.35;30.15;;;5.10;99.90;;;;;;5032799;28;20038;-65
2022/03/22 01:03:01;;;;;;;63.30;34.10;;;5.10;99.90;;;;;;5064731;28;20037;-65
2022/03/22 01:05:28;;;;;;;62.47;34.58;;;5.20;99.90;;;;;;5028886;28;20033;-66
2022/03/22 01:08:14;;;;;;;51.40;30.27;;;5.20;99.90;;;;;;5046388;28;20041;-66
2022/03/22 01:10:43;;;;;;;41.50;26.73;;;5.20;99.90;;;;;;5052338;28;20080;-66
2022/03/22 01:13:11;;;;;;;43.10;26.23;;;5.10;99.90;;;;;;5051239;28;20037;-66
2022/03/22 01:15:38;;;;;;;52.47;31.10;;;5.10;99.90;;;;;;5052288;28;20037;-65
2022/03/22 01:18:08;;;;;;;50.40;30.75;;;5.00;99.90;;;;;;5051196;28;20045;-66
2022/03/22 01:20:36;;;;;;;58.80;31.65;;;5.00;99.90;;;;;;5052197;28;20099;-65
2022/03/22 01:23:04;;;;;;;51.95;28.65;;;5.00;99.90;;;;;;5050960;28;20095;-66
2022/03/22 01:25:32;;;;;;;50.67;29.30;;;5.00;99.90;;;;;;5052334;28;20377;-66
2022/03/22 01:27:58;;;;;;;49.38;29.02;;;5.00;99.90;;;;;;5051021;28;20473;-66
2022/03/22 01:30:25;;;;;;;44.78;25.63;;;5.00;99.90;;;;;;5084503;28;20048;-66
2022/03/22 01:32:53;;;;;;;44.10;27.30;;;5.00;99.90;;;;;;5051972;28;20040;-66
2022/03/22 01:35:20;;;;;;;48.03;27.92;;;5.00;99.90;;;;;;5048653;28;20037;-66
2022/03/22 01:37:47;;;;;;;44.38;26.88;;;5.00;99.90;;;;;;5050019;28;20048;-66
2022/03/22 01:40:15;;;;;;;47.25;28.65;;;4.90;99.90;;;;;;5084502;28;20037;-66
2022/03/22 01:42:41;;;;;;;44.38;26.85;;;5.00;99.90;;;;;;5051848;28;20076;-66
2022/03/22 01:45:09;;;;;;;48.70;28.50;;;5.00;99.90;;;;;;5084518;28;20084;-66
2022/03/22 01:47:37;;;;;;;47.25;28.77;;;5.00;99.90;;;;;;5050746;28;20044;-66
2022/03/22 01:50:05;;;;;;;53.65;29.33;;;5.00;99.90;;;;;;5052085;28;20106;-66
2022/03/22 01:52:34;;;;;;;52.20;30.92;;;4.90;99.90;;;;;;5056785;28;20049;-66
2022/03/22 01:55:01;;;;;;;48.72;29.00;;;4.90;99.90;;;;;;5050781;28;20094;-66
2022/03/22 01:57:30;;;;;;;50.83;30.30;;;4.90;99.90;;;;;;5050467;28;20052;-66
2022/03/22 01:59:56;;;;;;;46.55;29.33;;;4.90;99.90;;;;;;5051769;28;20037;-65
2022/03/22 02:08:01;;;;;;;43.90;27.95;;;4.90;99.90;;;;;;5050199;28;20506;-66
2022/03/22 02:10:27;;;;;;;45.30;27.92;;;4.80;99.90;;;;;;5051544;28;20486;-66
2022/03/22 02:12:53;;;;;;;43.70;27.13;;;4.80;99.90;;;;;;5051416;28;20489;-66
2022/03/22 02:15:19;;;;;;;46.20;28.13;;;4.80;99.90;;;;;;5050393;28;20033;-66
2022/03/22 02:17:45;;;;;;;44.75;27.63;;;4.80;99.90;;;;;;5051449;28;20040;-66
2022/03/22 02:20:15;;;;;;;44.40;28.27;;;4.70;99.90;;;;;;5051679;28;20451;-66
2022/03/22 02:22:44;;;;;;;30.65;19.25;;;4.70;99.90;;;;;;5033676;28;20051;-65
2022/03/22 02:25:15;;;;;;;44.03;26.17;;;4.70;99.90;;;;;;5050260;28;20378;-66
2022/03/22 02:27:45;;;;;;;42.83;27.27;;;4.70;99.90;;;;;;5051366;28;20045;-66
2022/03/22 02:30:12;;;;;;;43.40;25.38;;;4.60;99.90;;;;;;5050197;28;20051;-66
2022/03/22 02:32:39;;;;;;;32.38;20.40;;;4.60;99.90;;;;;;5030767;28;20060;-66
2022/03/22 02:35:06;;;;;;;37.22;22.38;;;4.60;99.90;;;;;;5049121;28;20029;-66
2022/03/22 02:37:32;;;;;;;41.05;24.88;;;4.50;99.90;;;;;;5051280;28;20040;-66
2022/03/22 02:39:58;;;;;;;43.15;27.15;;;4.50;99.90;;;;;;5051308;28;20052;-66
2022/03/22 02:42:24;;;;;;;47.67;28.42;;;4.50;99.90;;;;;;5051487;28;20037;-66
2022/03/22 02:44:50;;;;;;;50.42;28.92;;;4.50;99.90;;;;;;5051493;28;20109;-66
2022/03/22 02:47:16;;;;;;;53.28;30.45;;;4.50;99.90;;;;;;5051309;28;20045;-65
2022/03/22 02:49:41;;;;;;;50.45;29.20;;;4.50;99.90;;;;;;5053721;28;20052;-66
2022/03/22 02:52:07;;;;;;;42.17;26.70;;;4.50;99.90;;;;;;5054935;28;20489;-65
2022/03/22 02:54:33;;;;;;;49.63;26.63;;;4.50;99.90;;;;;;5054805;28;20303;-65
2022/03/22 02:56:59;;;;;;;36.22;22.20;;;4.50;99.90;;;;;;5053940;28;20037;-65
2022/03/22 02:59:25;;;;;;;35.15;21.05;;;4.40;99.90;;;;;;5053513;28;20466;-65
2022/03/22 03:01:51;;;;;;;39.60;23.75;;;4.40;99.90;;;;;;5053495;28;20045;-65
2022/03/22 03:04:17;;;;;;;39.40;22.38;;;4.30;99.90;;;;;;5052487;28;20044;-65
2022/03/22 03:06:43;;;;;;;36.28;22.13;;;4.20;99.90;;;;;;5054628;28;20478;-66
2022/03/22 03:09:10;;;;;;;36.40;22.73;;;4.20;99.90;;;;;;5087173;28;20033;-66
2022/03/22 03:11:35;;;;;;;44.58;25.13;;;4.20;99.90;;;;;;5054518;28;20559;-66
2022/03/22 03:16:45;;;;;;;45.75;27.50;;;4.10;99.90;;;;;;5053307;28;20060;-67
2022/03/22 03:19:11;;;;;;;44.10;25.52;;;4.10;99.90;;;;;;5054519;28;20040;-66
2022/03/22 03:21:37;;;;;;;43.58;24.70;;;4.10;99.90;;;;;;5053274;28;20072;-66
2022/03/22 03:24:03;;;;;;;47.97;28.20;;;4.10;99.90;;;;;;5052921;28;20472;-67
2022/03/22 03:26:29;;;;;;;51.45;29.52;;;4.10;99.90;;;;;;5086936;28;20049;-66
2022/03/22 03:28:55;;;;;;;51.38;30.27;;;4.00;99.90;;;;;;5086691;28;20452;-66
2022/03/22 03:31:20;;;;;;;54.15;30.95;;;4.00;99.90;;;;;;5069597;28;20048;-65
2022/03/22 03:33:46;;;;;;;61.55;34.70;;;4.00;99.90;;;;;;5053569;28;20041;-66
2022/03/22 03:36:12;;;;;;;66.43;35.70;;;4.00;99.90;;;;;;5084782;28;20194;-66
2022/03/22 03:38:41;;;;;;;48.35;30.27;;;4.00;99.90;;;;;;5086848;28;20029;-66
2022/03/22 03:43:57;;;;;;;60.05;34.55;;;4.10;99.90;;;;;;5052669;28;20071;-66
2022/03/22 03:49:07;;;;;;;62.78;33.58;;;4.20;99.90;;;;;;5053821;28;20106;-66
2022/03/22 03:51:35;;;;;;;55.53;33.78;;;4.30;99.90;;;;;;5052742;28;20053;-66
2022/03/22 03:54:02;;;;;;;59.20;34.28;;;4.30;99.90;;;;;;5052502;28;20072;-66
2022/03/22 03:56:28;;;;;;;61.72;34.92;;;4.30;99.90;;;;;;5052928;28;20036;-66
2022/03/22 03:58:56;;;;;;;62.72;34.53;;;4.40;99.90;;;;;;5053611;28;20124;-66
2022/03/22 04:01:23;;;;;;;64.25;35.25;;;4.40;99.90;;;;;;5051441;28;20052;-66
2022/03/22 04:03:49;;;;;;;63.83;35.88;;;4.40;99.90;;;;;;5053005;28;20412;-66
2022/03/22 04:06:15;;;;;;;52.65;33.50;;;4.50;99.90;;;;;;5052227;28;20041;-66
2022/03/22 04:08:41;;;;;;;61.70;35.25;;;4.50;99.90;;;;;;5053473;28;20071;-66
2022/03/22 04:11:07;;;;;;;58.90;33.95;;;4.50;99.90;;;;;;5052193;28;20056;-66
2022/03/22 04:13:35;;;;;;;63.00;34.92;;;4.50;99.90;;;;;;5052148;28;20131;-66
2022/03/22 04:16:01;;;;;;;58.22;33.90;;;4.60;99.90;;;;;;5053373;28;20110;-66
2022/03/22 04:18:27;;;;;;;55.85;31.65;;;4.60;99.90;;;;;;5052032;28;20386;-66
2022/03/22 04:20:52;;;;;;;59.75;35.42;;;4.50;99.90;;;;;;5035749;28;20049;-66
2022/03/22 04:23:18;;;;;;;57.58;32.60;;;4.50;99.90;;;;;;5052981;28;20516;-66
2022/03/22 04:25:44;;;;;;;54.60;33.15;;;4.50;99.90;;;;;;5052097;28;20155;-66
2022/03/22 04:33:38;;;;;;;54.35;30.63;;;4.50;99.90;;;;;;5052048;28;20045;-66
2022/03/22 04:36:05;;;;;;;56.80;34.45;;;4.50;99.90;;;;;;5046481;28;20382;-66
2022/03/22 04:38:30;;;;;;;57.38;33.40;;;4.50;99.90;;;;;;5052906;28;20049;-66
2022/03/22 04:40:57;;;;;;;58.38;34.75;;;4.50;99.90;;;;;;5052891;28;20055;-66
2022/03/22 04:43:23;;;;;;;56.50;33.95;;;4.50;99.90;;;;;;5053076;28;20079;-66
2022/03/22 04:45:49;;;;;;;55.60;33.38;;;4.50;99.90;;;;;;5051786;28;20076;-66
2022/03/22 04:48:14;;;;;;;60.45;34.50;;;4.50;99.90;;;;;;5053120;28;20059;-66
2022/03/22 04:50:40;;;;;;;57.80;35.05;;;4.50;99.90;;;;;;5052577;28;20048;-66
2022/03/22 04:58:34;;;;;;;56.17;34.55;;;4.50;99.90;;;;;;5051617;28;20041;-66
2022/03/22 05:01:00;;;;;;;56.38;34.50;;;4.60;99.90;;;;;;5051480;28;20494;-66
2022/03/22 05:03:26;;;;;;;50.95;32.45;;;4.60;99.90;;;;;;5051269;28;20036;-66
2022/03/22 05:08:37;;;;;;;57.83;35.40;;;4.70;99.90;;;;;;5031784;28;20081;-66
2022/03/22 05:11:03;;;;;;;51.78;32.58;;;4.60;99.90;;;;;;5033371;28;20081;-66
2022/03/22 05:13:29;;;;;;;47.60;30.88;;;4.70;99.90;;;;;;5033378;28;20120;-66
2022/03/22 05:15:54;;;;;;;49.40;29.27;;;4.70;99.90;;;;;;5031958;28;20120;-66
2022/03/22 05:18:20;;;;;;;50.03;31.92;;;4.70;99.90;;;;;;5032107;28;20033;-66
2022/03/22 05:20:46;;;;;;;43.17;26.52;;;4.70;99.90;;;;;;5048761;28;20100;-66
2022/03/22 05:23:12;;;;;;;45.42;25.52;;;4.70;99.90;;;;;;5031832;28;20080;-66
2022/03/22 05:25:38;;;;;;;48.78;30.00;;;4.70;99.90;;;;;;5065036;28;20056;-66
2022/03/22 05:28:04;;;;;;;51.72;30.90;;;4.60;99.90;;;;;;5033202;28;20076;-67
2022/03/22 05:30:31;;;;;;;41.00;27.08;;;4.60;99.90;;;;;;5032998;28;20041;-67
2022/03/22 05:32:57;;;;;;;55.83;33.90;;;4.60;99.90;;;;;;5032921;28;20116;-67
2022/03/22 05:35:23;;;;;;;42.75;27.30;;;4.50;99.90;;;;;;5029812;28;20151;-67
2022/03/22 05:37:50;;;;;;;53.30;32.72;;;4.50;99.90;;;;;;5031782;28;20046;-66
2022/03/22 05:40:16;;;;;;;60.25;35.38;;;4.50;99.90;;;;;;5033092;28;20053;-66
2022/03/22 05:42:43;;;;;;;57.83;34.40;;;4.50;99.90;;;;;;5048347;28;20081;-66
2022/03/22 05:45:10;;;;;;;55.25;35.53;;;4.50;99.90;;;;;;5064964;28;20047;-66
2022/03/22 05:47:36;;;;;;;55.20;33.65;;;4.60;99.90;;;;;;5064832;28;20107;-67
2022/03/22 05:50:02;;;;;;;58.13;33.40;;;4.60;99.90;;;;;;5031477;28;20060;-67
2022/03/22 05:52:31;;;;;;;55.00;32.33;;;4.60;99.90;;;;;;5064920;28;20406;-66
2022/03/22 05:54:57;;;;;;;56.67;34.90;;;4.70;99.90;;;;;;5064723;28;20033;-66
2022/03/22 05:57:22;;;;;;;59.22;34.85;;;4.70;99.90;;;;;;5031432;28;20044;-66
2022/03/22 05:59:48;;;;;;;57.53;34.15;;;4.70;99.90;;;;;;5032744;28;20040;-66
2022/03/22 06:02:14;;;;;;;59.25;34.25;;;4.70;99.90;;;;;;5064563;28;20049;-66
2022/03/22 06:04:41;;;;;;;56.03;34.08;;;4.70;99.90;;;;;;5030565;28;20054;-66
2022/03/22 06:07:06;;;;;;;52.08;32.97;;;4.80;99.90;;;;;;5040273;28;20037;-66
2022/03/22 06:09:32;;;;;;;44.33;28.50;;;4.80;99.90;;;;;;5051565;28;20390;-66
2022/03/22 06:11:58;;;;;;;38.22;24.48;;;4.80;99.90;;;;;;5051285;28;20049;-66
2022/03/22 06:14:24;;;;;;;54.40;33.38;;;4.90;99.90;;;;;;5048678;28;20037;-66
2022/03/22 06:16:49;;;;;;;50.83;31.05;;;4.80;99.90;;;;;;5051334;28;20386;-66
2022/03/22 06:19:15;;;;;;;44.53;28.63;;;4.70;99.90;;;;;;5052452;28;20551;-66
2022/03/22 06:21:41;;;;;;;45.15;29.88;;;4.80;99.90;;;;;;5052443;28;20052;-66
2022/03/22 06:24:07;;;;;;;41.63;27.45;;;4.80;99.90;;;;;;5052526;28;20061;-67
2022/03/22 06:26:33;;;;;;;43.17;25.90;;;4.80;99.90;;;;;;5056414;28;20389;-67
2022/03/22 06:29:00;;;;;;;49.53;28.20;;;5.00;99.90;;;;;;5055515;28;20041;-67
2022/03/22 06:31:27;;;;;;;47.70;29.23;;;5.00;99.90;;;;;;5054720;28;20045;-67
2022/03/22 06:33:53;;;;;;;46.53;30.92;;;5.10;99.90;;;;;;5053138;28;20474;-67
2022/03/22 06:36:19;;;;;;;49.13;31.25;;;5.30;99.90;;;;;;5054494;28;20044;-67
2022/03/22 06:38:45;;;;;;;50.80;32.72;;;5.40;99.90;;;;;;5055470;28;20037;-66
2022/03/22 06:41:10;;;;;;;48.97;29.60;;;5.40;99.90;;;;;;5055157;28;20493;-66
2022/03/22 06:43:36;;;;;;;53.40;32.80;;;5.50;99.90;;;;;;5054015;28;20044;-67
2022/03/22 06:46:02;;;;;;;51.33;30.42;;;5.60;99.90;;;;;;5054637;28;20471;-67
2022/03/22 06:48:28;;;;;;;49.58;31.20;;;5.70;99.90;;;;;;5053815;28;20040;-67
2022/03/22 06:50:54;;;;;;;48.83;30.70;;;5.90;99.90;;;;;;5053630;28;20049;-67
2022/03/22 06:53:20;;;;;;;48.65;31.55;;;6.00;99.90;;;;;;5055149;28;20029;-67
2022/03/22 06:55:46;;;;;;;50.15;31.65;;;6.20;99.90;;;;;;5053568;28;20045;-67
2022/03/22 06:58:14;;;;;;;53.05;32.45;;;6.40;99.90;;;;;;5053890;28;20627;-66
2022/03/22 07:00:40;;;;;;;52.33;31.92;;;6.60;99.90;;;;;;5054760;28;20040;-67
2022/03/22 07:03:06;;;;;;;57.22;33.53;;;6.80;99.90;;;;;;5053598;28;20037;-67
2022/03/22 07:05:32;;;;;;;48.85;32.75;;;7.20;99.90;;;;;;5051242;28;20123;-67
2022/03/22 07:07:59;;;;;;;54.50;33.55;;;7.40;99.90;;;;;;5054429;28;20437;-69
2022/03/22 07:10:25;;;;;;;51.95;33.33;;;7.60;99.90;;;;;;5088179;28;20060;-68
2022/03/22 07:12:58;;;;;;;45.85;30.75;;;7.80;99.90;;;;;;5054279;28;20043;-68
2022/03/22 07:15:28;;;;;;;49.60;32.22;;;8.00;99.90;;;;;;5055595;28;20116;-67
2022/03/22 07:17:54;;;;;;;53.30;32.10;;;8.20;99.90;;;;;;5054743;28;20599;-68
2022/03/22 07:20:21;;;;;;;48.33;32.45;;;8.40;99.90;;;;;;5055511;28;20041;-68
2022/03/22 07:22:47;;;;;;;47.80;31.70;;;8.60;99.90;;;;;;5053223;28;20087;-68
2022/03/22 07:25:13;;;;;;;48.05;30.70;;;8.80;99.90;;;;;;5055288;28;20110;-68
2022/03/22 07:27:39;;;;;;;47.08;30.73;;;9.00;99.90;;;;;;5055125;28;20041;-68
2022/03/22 07:30:06;;;;;;;45.20;30.83;;;9.10;99.90;;;;;;5053956;28;20066;-68
2022/03/22 07:32:32;;;;;;;45.47;30.08;;;9.30;99.90;;;;;;5053737;28;20068;-68
2022/03/22 07:35:00;;;;;;;52.38;32.38;;;9.40;99.90;;;;;;5052044;28;20083;-68
2022/03/22 07:37:29;;;;;;;41.97;29.67;;;9.60;99.90;;;;;;5053703;28;20072;-68
2022/03/22 07:39:59;;;;;;;44.97;29.00;;;9.80;99.90;;;;;;5053980;28;20083;-68
2022/03/22 07:42:29;;;;;;;40.93;28.27;;;9.90;99.90;;;;;;5054894;28;20135;-68
2022/03/22 07:45:02;;;;;;;45.40;28.63;;;10.00;99.90;;;;;;5053867;28;20374;-68
2022/03/22 07:47:29;;;;;;;46.63;30.02;;;10.00;99.90;;;;;;5054798;28;20098;-68
2022/03/22 07:53:01;;;;;;;42.83;30.15;;;10.00;99.90;;;;;;5053256;28;20048;-68
2022/03/22 07:55:32;;;;;;;43.83;29.17;;;10.10;99.90;;;;;;5053557;28;20043;-68
2022/03/22 07:57:58;;;;;;;47.15;29.20;;;10.10;99.90;;;;;;5036848;28;20068;-68
2022/03/22 08:00:26;;;;;;;44.65;30.05;;;10.10;99.90;;;;;;5053700;28;20041;-68
2022/03/22 08:02:54;;;;;;;49.40;29.95;;;10.20;99.90;;;;;;5054549;28;20049;-68
2022/03/22 08:05:20;;;;;;;42.72;28.88;;;10.20;99.90;;;;;;5043099;28;20043;-68
2022/03/22 08:07:46;;;;;;;47.58;30.80;;;10.30;99.90;;;;;;5053043;28;20044;-68
2022/03/22 08:10:11;;;;;;;42.88;29.45;;;10.50;99.90;;;;;;5054243;28;20045;-68
2022/03/22 08:12:37;;;;;;;44.08;29.63;;;10.60;99.90;;;;;;5054497;28;20072;-68
2022/03/22 08:15:03;;;;;;;40.83;29.77;;;10.90;99.90;;;;;;5036782;28;20037;-70
2022/03/22 08:17:29;;;;;;;39.85;28.02;;;11.20;99.90;;;;;;5053197;28;20107;-70
2022/03/22 08:19:55;;;;;;;41.17;29.55;;;11.40;99.90;;;;;;5052976;28;20453;-69
2022/03/22 08:22:21;;;;;;;40.17;26.25;;;11.90;99.90;;;;;;5053121;28;20072;-70
2022/03/22 08:24:47;;;;;;;39.50;27.75;;;12.30;99.90;;;;;;5074506;28;20519;-69
2022/03/22 08:27:13;;;;;;;40.25;27.63;;;12.60;99.90;;;;;;5036310;28;20045;-70
2022/03/22 08:29:39;;;;;;;38.75;26.42;;;12.90;99.90;;;;;;5053922;28;20118;-71
2022/03/22 08:32:05;;;;;;;39.95;24.27;;;13.50;99.90;;;;;;5052605;28;20045;-70
2022/03/22 08:34:31;;;;;;;36.33;26.95;;;13.90;99.90;;;;;;5051242;28;20516;-70
2022/03/22 08:36:56;;;;;;;36.90;27.27;;;14.10;99.90;;;;;;5052583;28;20040;-71
2022/03/22 08:39:22;;;;;;;36.00;25.58;;;14.30;99.90;;;;;;5053824;28;20076;-71
2022/03/22 08:41:48;;;;;;;38.65;27.25;;;14.50;99.90;;;;;;5052730;28;20424;-71
2022/03/22 08:44:14;;;;;;;36.85;26.50;;;14.70;99.90;;;;;;5052673;28;20447;-70
2022/03/22 08:46:39;;;;;;;31.40;25.15;;;15.00;99.90;;;;;;5052289;28;20392;-71
2022/03/22 08:49:05;;;;;;;36.28;26.15;;;15.40;99.90;;;;;;5052310;28;20493;-70
2022/03/22 08:51:31;;;;;;;34.97;26.80;;;15.70;99.90;;;;;;5052562;28;20130;-70
2022/03/22 08:53:57;;;;;;;34.78;24.92;;;16.10;99.90;;;;;;5052344;28;20110;-70
2022/03/22 08:56:23;;;;;;;35.47;26.45;;;16.40;99.90;;;;;;5049176;28;20041;-71
2022/03/22 08:58:52;;;;;;;32.97;23.30;;;16.50;99.90;;;;;;5052417;28;20037;-70
2022/03/22 09:01:22;;;;;;;34.65;25.17;;;16.70;98.70;;;;;;5052366;28;20401;-70
2022/03/22 09:06:07;;;;;;;34.53;25.58;;;16.70;96.20;;;;;;5052018;28;20123;-71
2022/03/22 09:06:34;;;;;;;35.45;27.38;;;16.90;95.40;;;;;;5051926;28;20048;-71
2022/03/22 09:08:59;;;;;;;32.88;25.75;;;17.20;94.90;;;;;;5053370;28;20123;-70
2022/03/22 09:11:26;;;;;;;34.63;27.02;;;17.50;94.90;;;;;;5053096;28;20489;-69
2022/03/22 09:13:54;;;;;;;34.30;24.80;;;17.90;94.50;;;;;;5053175;28;20041;-70
2022/03/22 09:16:21;;;;;;;34.22;26.25;;;18.30;93.40;;;;;;5035433;28;20041;-69
2022/03/22 09:18:48;;;;;;;36.35;25.90;;;18.70;92.60;;;;;;5051839;28;20465;-69
2022/03/22 09:21:16;;;;;;;30.88;25.85;;;19.00;91.30;;;;;;5052136;28;20130;-70
2022/03/22 09:23:43;;;;;;;31.65;25.23;;;19.30;90.30;;;;;;5053136;28;20115;-70
2022/03/22 09:26:09;;;;;;;31.27;25.38;;;19.50;89.60;;;;;;5052098;28;20048;-70
2022/03/22 09:28:35;;;;;;;35.15;25.70;;;19.70;85.60;;;;;;5051869;28;20044;-72
2022/03/22 09:31:01;;;;;;;32.00;25.38;;;19.90;83.90;;;;;;5051819;28;20052;-71
2022/03/22 09:33:26;;;;;;;32.75;26.10;;;20.10;83.60;;;;;;5053066;28;20029;-70
2022/03/22 09:35:57;;;;;;;28.25;25.05;;;20.30;81.40;;;;;;5050755;28;20079;-71
2022/03/22 09:38:23;;;;;;;31.10;23.88;;;20.50;79.50;;;;;;5053108;28;20045;-71
2022/03/22 09:40:52;;;;;;;29.95;23.45;;;20.50;75.00;;;;;;5051811;28;20195;-72
2022/03/22 09:43:20;;;;;;;32.67;24.05;;;20.60;73.20;;;;;;5049333;28;20041;-71
2022/03/22 09:45:46;;;;;;;31.73;24.52;;;20.60;72.20;;;;;;5051555;28;20049;-70
2022/03/22 09:48:11;;;;;;;30.35;24.10;;;20.70;71.20;;;;;;5053200;28;20044;-71
2022/03/22 09:53:22;;;;;;;34.25;25.65;;;21.00;71.90;;;;;;5051801;28;20413;-72
2022/03/22 09:55:47;;;;;;;32.33;26.13;;;21.30;73.10;;;;;;5052615;28;20119;-71
2022/03/22 09:58:14;;;;;;;29.45;25.05;;;21.60;72.50;;;;;;5051867;28;20112;-71
2022/03/22 10:00:40;;;;;;;30.45;25.55;;;21.80;72.00;;;;;;5051394;28;20037;-72
2022/03/22 10:03:06;;;;;;;32.30;25.80;;;22.00;68.70;;;;;;5051656;28;20052;-71
2022/03/22 10:05:32;;;;;;;30.38;25.80;;;22.10;67.90;;;;;;5049587;28;20119;-71
2022/03/22 10:08:03;;;;;;;27.50;24.30;;;22.30;66.50;;;;;;5052715;28;20116;-72
2022/03/22 10:10:29;;;;;;;30.50;23.88;;;22.40;66.00;;;;;;5052605;28;20091;-72
2022/03/22 10:12:58;;;;;;;30.00;23.92;;;22.40;64.50;;;;;;5052776;28;20041;-71
2022/03/22 10:15:30;;;;;;;34.63;25.42;;;22.50;64.10;;;;;;5034786;28;20045;-72
2022/03/22 10:18:10;;;;;;;27.45;21.52;;;22.60;61.80;;;;;;5052249;28;20052;-72
2022/03/22 10:20:38;;;;;;;27.05;23.25;;;22.50;60.50;;;;;;5032009;28;20123;-71
2022/03/22 10:23:06;;;;;;;28.88;24.38;;;22.40;61.20;;;;;;5051025;28;20057;-71
2022/03/22 10:25:34;;;;;;;28.55;23.88;;;22.50;62.20;;;;;;5051272;28;20504;-71
2022/03/22 10:28:03;;;;;;;31.60;24.88;;;22.50;59.90;;;;;;5034860;28;20041;-71
2022/03/22 10:30:30;;;;;;;28.60;22.42;;;22.50;60.10;;;;;;5034947;28;20037;-72
2022/03/22 10:32:56;;;;;;;31.90;24.33;;;22.70;60.20;;;;;;5034492;28;20096;-71
2022/03/22 10:35:34;;;;;;;30.10;23.60;;;22.80;59.90;;;;;;5050109;28;20044;-71
2022/03/22 10:38:06;;;;;;;28.63;23.23;;;23.00;59.40;;;;;;5052584;28;20180;-71
2022/03/22 10:40:40;;;;;;;26.92;22.25;;;23.20;59.70;;;;;;5051356;28;20044;-72
2022/03/22 10:43:22;;;;;;;30.05;23.45;;;23.40;58.80;;;;;;5034683;28;20036;-71
2022/03/22 10:45:53;;;;;;;28.50;24.80;;;23.60;58.90;;;;;;5052373;28;20402;-71
2022/03/22 10:48:32;;;;;;;30.20;22.05;;;23.90;57.30;;;;;;5052150;28;20436;-71
2022/03/22 10:50:59;;;;;;;27.70;22.63;;;23.70;56.30;;;;;;5052284;28;20045;-71
2022/03/22 10:53:26;;;;;;;27.67;21.83;;;23.70;57.30;;;;;;5051219;28;20163;-70
2022/03/22 10:55:53;;;;;;;25.92;20.20;;;23.90;58.50;;;;;;5051478;28;20048;-71
2022/03/22 10:58:25;;;;;;;26.33;21.15;;;24.20;57.30;;;;;;5052081;28;20041;-71
2022/03/22 11:00:52;;;;;;;25.05;19.77;;;24.40;55.50;;;;;;5052125;28;20540;-71
2022/03/22 11:03:19;;;;;;;29.67;21.35;;;24.60;54.50;;;;;;5047789;28;20116;-72
2022/03/22 11:05:53;;;;;;;23.85;19.90;;;24.70;53.60;;;;;;5049646;28;20040;-72
2022/03/22 11:08:19;;;;;;;24.40;20.10;;;24.80;54.60;;;;;;5050540;28;20098;-71
2022/03/22 11:10:45;;;;;;;27.45;21.17;;;24.80;54.10;;;;;;5052884;28;20090;-71
2022/03/22 11:13:11;;;;;;;24.65;21.02;;;24.70;52.30;;;;;;5053812;28;20071;-71
2022/03/22 11:15:42;;;;;;;26.85;22.15;;;24.60;51.60;;;;;;5055417;28;20041;-70
2022/03/22 11:18:09;;;;;;;25.25;21.83;;;24.60;52.20;;;;;;5087473;28;20071;-71
2022/03/22 11:20:35;;;;;;;23.70;20.52;;;24.60;53.30;;;;;;5054359;28;20037;-71
2022/03/22 11:23:01;;;;;;;27.75;20.88;;;24.90;52.80;;;;;;5074024;28;20060;-71
2022/03/22 11:25:34;;;;;;;23.30;18.45;;;24.90;52.20;;;;;;5036496;28;20493;-70
2022/03/22 11:28:04;;;;;;;29.77;21.90;;;25.10;52.10;;;;;;5051237;28;20044;-71
2022/03/22 11:30:31;;;;;;;25.67;21.05;;;25.20;52.00;;;;;;5054455;28;20128;-71
2022/03/22 11:36:18;;;;;;;25.92;21.20;;;25.10;51.10;;;;;;5051822;28;20401;-72
2022/03/22 11:38:57;;;;;;;24.08;20.80;;;24.80;53.20;;;;;;5054245;28;20037;-70
2022/03/22 11:44:39;;;;;;;25.73;18.95;;;24.80;52.20;;;;;;5052672;28;20160;-71
2022/03/22 11:47:11;;;;;;;26.38;18.90;;;24.80;50.30;;;;;;5053963;28;20044;-71
2022/03/22 11:49:58;;;;;;;23.92;18.75;;;24.80;51.30;;;;;;5052788;28;20076;-70
2022/03/22 11:52:39;;;;;;;24.17;16.90;;;25.10;50.80;;;;;;5052532;28;20040;-70
2022/03/22 11:55:18;;;;;;;21.98;16.60;;;25.20;49.20;;;;;;5052765;28;20397;-71
2022/03/22 11:57:56;;;;;;;23.23;17.50;;;24.90;48.50;;;;;;5053782;28;20397;-71
2022/03/22 12:00:39;;;;;;;20.50;17.08;;;24.50;49.30;;;;;;5035851;28;20121;-71
2022/03/22 12:03:09;;;;;;;19.80;15.38;;;24.50;51.20;;;;;;5052260;28;20041;-71
2022/03/22 12:05:35;;;;;;;18.83;15.43;;;24.50;51.70;;;;;;5051266;28;20037;-71
2022/03/22 12:08:09;;;;;;;23.17;17.48;;;24.30;50.30;;;;;;5053123;28;20033;-72
2022/03/22 12:10:35;;;;;;;21.35;16.95;;;24.00;50.30;;;;;;5035680;28;20037;-72
2022/03/22 12:13:01;;;;;;;22.50;17.25;;;23.80;50.50;;;;;;5053247;28;20120;-71
2022/03/22 12:15:27;;;;;;;21.77;17.02;;;23.80;51.50;;;;;;5053459;28;20037;-71
2022/03/22 12:17:53;;;;;;;22.10;17.58;;;24.00;51.60;;;;;;5052027;28;20037;-71
2022/03/22 12:20:22;;;;;;;20.85;16.90;;;24.50;50.60;;;;;;5053454;28;20397;-71
2022/03/22 12:22:58;;;;;;;20.10;17.55;;;24.60;49.70;;;;;;5052375;28;20061;-71
2022/03/22 12:25:26;;;;;;;23.70;17.77;;;24.60;49.20;;;;;;5051891;28;20559;-70
2022/03/22 12:28:12;;;;;;;20.05;15.82;;;24.50;49.10;;;;;;5051801;28;20052;-71
2022/03/22 12:30:43;;;;;;;21.77;16.58;;;24.40;49.40;;;;;;5052909;28;20057;-71
2022/03/22 12:33:18;;;;;;;22.45;15.80;;;24.20;49.00;;;;;;5053071;28;20041;-71
2022/03/22 12:35:46;;;;;;;22.58;16.90;;;24.00;49.50;;;;;;5082923;28;20040;-71
2022/03/22 12:38:13;;;;;;;19.83;14.60;;;24.10;49.60;;;;;;5053047;28;20052;-69
2022/03/22 12:40:39;;;;;;;18.40;14.07;;;24.20;48.70;;;;;;5052938;28;20080;-69
2022/03/22 12:43:11;;;;;;;20.05;13.85;;;24.40;48.60;;;;;;5085008;28;20060;-71
2022/03/22 12:45:43;;;;;;;18.75;13.55;;;24.60;48.60;;;;;;5085234;28;20044;-70
2022/03/22 12:48:09;;;;;;;20.85;14.68;;;24.60;47.80;;;;;;5052712;28;20106;-70
2022/03/22 12:50:35;;;;;;;21.52;15.32;;;24.50;49.20;;;;;;5052839;28;20119;-71
2022/03/22 12:53:01;;;;;;;22.35;15.50;;;24.30;49.10;;;;;;5084715;28;20178;-72
2022/03/22 12:55:27;;;;;;;21.73;16.33;;;24.00;49.50;;;;;;5052557;28;20040;-70
2022/03/22 12:57:56;;;;;;;21.23;15.48;;;23.80;49.30;;;;;;5051239;28;20500;-71
2022/03/22 13:00:31;;;;;;;21.33;16.00;;;23.90;49.10;;;;;;5053007;28;20055;-70
2022/03/22 13:03:06;;;;;;;24.38;16.00;;;23.90;51.00;;;;;;5052647;28;20075;-70
2022/03/22 13:05:31;;;;;;;23.02;17.70;;;23.90;50.30;;;;;;5048946;28;20522;-70
2022/03/22 13:08:00;;;;;;;26.17;17.42;;;23.80;50.50;;;;;;5051942;28;20045;-70
2022/03/22 13:13:21;;;;;;;20.65;17.15;;;24.00;51.50;;;;;;5052051;28;20087;-70
2022/03/22 13:15:53;;;;;;;23.95;18.23;;;23.80;50.90;;;;;;5052677;28;20489;-70
2022/03/22 13:18:19;;;;;;;22.80;17.58;;;23.70;49.50;;;;;;5051134;28;20190;-70